createdAt,value
2022-10-05T00:01:32.611Z,44.42
2022-10-05T00:04:13.861Z,36.97
2022-10-05T00:06:41.164Z,38.90
2022-10-05T00:09:22.818Z,32.55
2022-10-05T00:11:50.539Z,26.92
2022-10-05T00:14:22.007Z,33.15
2022-10-05T00:16:56.029Z,36.40
2022-10-05T00:19:34.189Z,41.55
2022-10-05T00:22:16.942Z,45.80
2022-10-05T00:24:44.831Z,49.92
2022-10-05T00:27:26.869Z,43.50
2022-10-05T00:29:58.322Z,40.17
2022-10-05T00:32:31.950Z,38.75
2022-10-05T00:34:59.161Z,50.70
2022-10-05T00:37:26.283Z,62.72
2022-10-05T00:39:59.896Z,47.03
2022-10-05T00:42:45.899Z,43.72
2022-10-05T00:45:34.927Z,49.08
2022-10-05T00:48:04.996Z,47.03
2022-10-05T00:50:38.956Z,46.40
2022-10-05T00:53:24.930Z,54.75
2022-10-05T00:55:58.959Z,61.70
2022-10-05T00:58:26.029Z,52.08
2022-10-05T01:01:06.083Z,62.53
2022-10-05T01:03:40.041Z,43.47
2022-10-05T01:06:13.935Z,41.78
2022-10-05T01:09:06.825Z,50.15
2022-10-05T01:11:37.321Z,53.20
2022-10-05T01:14:17.810Z,38.70
2022-10-05T01:16:52.079Z,51.42
2022-10-05T01:19:44.800Z,44.75
2022-10-05T01:22:12.265Z,41.25
2022-10-05T01:24:49.853Z,51.13
2022-10-05T01:27:29.506Z,42.67
2022-10-05T01:30:07.865Z,49.20
2022-10-05T01:32:40.992Z,42.40
2022-10-05T01:35:17.850Z,49.40
2022-10-05T01:37:57.073Z,43.10
2022-10-05T01:40:54.877Z,42.15
2022-10-05T01:43:22.191Z,38.90
2022-10-05T01:46:05.187Z,35.72
2022-10-05T01:48:51.440Z,49.88
2022-10-05T01:51:24.847Z,35.75
2022-10-05T01:54:09.511Z,35.75
2022-10-05T01:56:42.935Z,42.10
2022-10-05T01:59:39.918Z,42.15
2022-10-05T02:02:09.833Z,47.00
2022-10-05T02:05:01.839Z,36.55
2022-10-05T02:07:59.085Z,42.15
2022-10-05T02:10:40.927Z,42.35
2022-10-05T02:13:16.511Z,38.65
2022-10-05T02:15:56.999Z,34.33
2022-10-05T02:18:27.888Z,42.10
2022-10-05T02:21:03.014Z,33.45
2022-10-05T02:23:33.182Z,45.00
2022-10-05T02:26:07.941Z,36.17
2022-10-05T02:28:49.335Z,35.92
2022-10-05T02:31:26.019Z,35.65
2022-10-05T02:33:53.345Z,40.65
2022-10-05T02:36:36.939Z,43.25
2022-10-05T02:39:21.903Z,35.70
2022-10-05T02:42:08.947Z,35.53
2022-10-05T02:44:47.704Z,41.65
2022-10-05T02:47:31.023Z,39.60
2022-10-05T02:50:01.372Z,40.58
2022-10-05T02:52:49.939Z,41.83
2022-10-05T02:55:33.284Z,38.72
2022-10-05T02:58:19.934Z,44.03
2022-10-05T03:00:50.025Z,40.15
2022-10-05T03:03:37.052Z,43.40
2022-10-05T03:06:06.202Z,35.80
2022-10-05T03:08:46.954Z,36.80
2022-10-05T03:11:14.057Z,26.38
2022-10-05T03:13:57.024Z,31.88
2022-10-05T03:16:35.734Z,37.03
2022-10-05T03:19:28.973Z,33.55
2022-10-05T03:22:02.511Z,26.48
2022-10-05T03:24:58.926Z,26.58
2022-10-05T03:27:37.286Z,28.00
2022-10-05T03:30:16.935Z,25.52
2022-10-05T03:33:02.516Z,20.60
2022-10-05T03:36:02.927Z,17.98
2022-10-05T03:38:38.712Z,29.48
2022-10-05T03:41:19.948Z,15.80
2022-10-05T03:44:06.468Z,22.45
2022-10-05T03:47:03.981Z,22.65
2022-10-05T03:49:31.061Z,17.55
2022-10-05T03:52:31.079Z,14.63
2022-10-05T03:55:03.676Z,15.27
2022-10-05T03:57:41.038Z,19.42
2022-10-05T04:00:28.760Z,23.33
2022-10-05T04:03:18.005Z,16.55
2022-10-05T04:06:07.950Z,13.80
2022-10-05T04:08:46.800Z,17.42
2022-10-05T04:11:21.798Z,20.02
2022-10-05T04:14:18.952Z,27.63
2022-10-05T04:16:48.160Z,25.90
2022-10-05T04:19:27.964Z,31.95
2022-10-05T04:21:59.006Z,30.85
2022-10-05T04:24:39.061Z,41.20
2022-10-05T04:27:15.617Z,29.17
2022-10-05T04:29:56.036Z,25.83
2022-10-05T04:32:41.682Z,25.95
2022-10-05T04:35:23.030Z,26.15
2022-10-05T04:37:58.203Z,28.33
2022-10-05T04:40:46.191Z,30.52
2022-10-05T04:43:26.234Z,25.77
2022-10-05T04:46:36.055Z,20.13
2022-10-05T04:49:15.011Z,17.00
2022-10-05T04:51:51.285Z,21.38
2022-10-05T04:54:18.583Z,13.45
2022-10-05T04:56:50.880Z,18.30
2022-10-05T04:59:39.887Z,22.25
2022-10-05T05:02:19.567Z,22.70
2022-10-05T05:05:02.890Z,14.55
2022-10-05T05:07:39.639Z,12.07
2022-10-05T05:10:33.904Z,19.13
2022-10-05T05:13:24.711Z,17.20
2022-10-05T05:15:57.988Z,10.80
2022-10-05T05:18:40.409Z,21.45
2022-10-05T05:21:25.049Z,21.48
2022-10-05T05:24:10.691Z,14.32
2022-10-05T05:27:02.930Z,26.52
2022-10-05T05:29:38.921Z,18.35
2022-10-05T05:32:19.940Z,30.40
2022-10-05T05:35:05.791Z,17.90
2022-10-05T05:37:51.933Z,15.45
2022-10-05T05:40:31.052Z,17.08
2022-10-05T05:43:10.953Z,28.00
2022-10-05T05:45:58.405Z,29.98
2022-10-05T05:48:40.996Z,29.08
2022-10-05T05:51:20.086Z,27.98
2022-10-05T05:53:55.335Z,25.60
2022-10-05T05:56:31.233Z,24.98
2022-10-05T05:59:12.094Z,19.23
2022-10-05T06:01:44.167Z,23.60
2022-10-05T06:04:22.056Z,21.58
2022-10-05T06:06:53.410Z,14.95
2022-10-05T06:09:33.965Z,16.55
2022-10-05T06:12:07.690Z,17.23
2022-10-05T06:14:48.971Z,12.45
2022-10-05T06:17:25.100Z,16.25
2022-10-05T06:20:04.995Z,16.35
2022-10-05T06:22:38.287Z,18.10
2022-10-05T06:25:14.943Z,20.50
2022-10-05T06:28:00.761Z,11.27
2022-10-05T06:30:38.925Z,17.15
2022-10-05T06:33:23.087Z,25.25
2022-10-05T06:36:16.371Z,23.30
2022-10-05T06:39:05.002Z,22.40
2022-10-05T06:41:45.976Z,15.65
2022-10-05T06:44:33.053Z,20.80
2022-10-05T06:47:00.588Z,16.15
2022-10-05T06:52:16.360Z,15.30
2022-10-05T06:54:56.099Z,17.48
2022-10-05T06:57:44.956Z,15.50
2022-10-05T07:02:52.272Z,25.60
2022-10-05T07:05:45.036Z,20.40
2022-10-05T07:08:27.926Z,20.17
2022-10-05T07:11:03.974Z,19.73
2022-10-05T07:13:55.939Z,15.60
2022-10-05T07:16:38.654Z,17.40
2022-10-05T07:19:11.933Z,21.80
2022-10-05T07:22:17.559Z,20.55
2022-10-05T07:25:04.921Z,23.48
2022-10-05T07:27:38.658Z,22.10
2022-10-05T07:30:11.940Z,23.13
2022-10-05T07:32:46.361Z,17.30
2022-10-05T07:35:52.942Z,14.35
2022-10-05T07:38:23.293Z,11.25
2022-10-05T07:41:00.135Z,9.88
2022-10-05T07:43:57.954Z,12.43
2022-10-05T07:46:55.120Z,18.50
2022-10-05T07:49:44.628Z,19.08
2022-10-05T07:52:20.039Z,18.33
2022-10-05T07:54:59.377Z,18.85
2022-10-05T07:57:40.100Z,11.90
2022-10-05T08:00:11.409Z,15.10
2022-10-05T08:02:51.091Z,19.90
2022-10-05T08:05:24.733Z,17.98
2022-10-05T08:08:01.092Z,22.10
2022-10-05T08:10:36.452Z,32.25
2022-10-05T08:13:30.104Z,23.60
2022-10-05T08:15:59.819Z,24.02
2022-10-05T08:18:33.055Z,16.42
2022-10-05T08:21:00.678Z,17.50
2022-10-05T08:26:13.656Z,14.75
2022-10-05T08:28:57.119Z,15.43
2022-10-05T08:31:26.697Z,18.60
2022-10-05T08:34:19.092Z,14.25
2022-10-05T08:37:01.392Z,7.85
2022-10-05T08:39:38.171Z,10.95
2022-10-05T08:42:12.040Z,5.78
2022-10-05T08:45:06.061Z,6.85
2022-10-05T08:47:45.639Z,8.02
2022-10-05T08:50:46.219Z,8.85
2022-10-05T08:53:13.383Z,8.25
2022-10-05T08:55:47.014Z,19.23
2022-10-05T08:58:37.745Z,7.03
2022-10-05T09:01:11.047Z,4.40
2022-10-05T09:03:53.617Z,4.45
2022-10-05T09:06:45.982Z,8.43
2022-10-05T09:09:19.578Z,3.72
2022-10-05T09:12:15.998Z,9.05
2022-10-05T09:15:13.613Z,7.25
2022-10-05T09:20:39.664Z,5.53
2022-10-05T09:23:25.986Z,8.60
2022-10-05T09:26:31.829Z,7.10
2022-10-05T09:29:18.979Z,9.25
2022-10-05T09:32:25.250Z,5.88
2022-10-05T09:35:07.983Z,6.90
2022-10-05T09:37:35.407Z,7.40
2022-10-05T09:40:28.998Z,7.15
2022-10-05T09:43:06.206Z,6.32
2022-10-05T09:45:57.015Z,9.10
2022-10-05T09:48:43.237Z,7.18
2022-10-05T09:51:52.050Z,7.90
2022-10-05T09:54:22.082Z,3.50
2022-10-05T09:57:14.003Z,5.75
2022-10-05T10:00:01.461Z,4.43
2022-10-05T10:02:41.136Z,3.67
2022-10-05T10:05:14.794Z,4.30
2022-10-05T10:07:56.993Z,4.45
2022-10-05T10:10:40.456Z,3.78
2022-10-05T10:13:29.994Z,2.75
2022-10-05T10:16:16.024Z,3.25
2022-10-05T10:18:53.036Z,2.88
2022-10-05T10:21:46.879Z,3.10
2022-10-05T10:24:26.278Z,5.68
2022-10-05T10:27:13.281Z,12.63
2022-10-05T10:29:50.175Z,7.05
2022-10-05T10:32:29.091Z,14.48
2022-10-05T10:35:35.064Z,7.88
2022-10-05T10:38:22.393Z,14.02
2022-10-05T10:41:20.319Z,16.23
2022-10-05T10:43:59.491Z,15.07
2022-10-05T10:46:52.529Z,20.35
2022-10-05T10:49:29.604Z,24.02
2022-10-05T10:52:19.162Z,16.20
2022-10-05T10:55:05.284Z,16.15
2022-10-05T10:57:45.055Z,21.58
2022-10-05T11:00:30.807Z,36.05
2022-10-05T11:03:15.267Z,23.15
2022-10-05T11:06:07.745Z,25.92
2022-10-05T11:09:00.048Z,21.73
2022-10-05T11:11:31.072Z,24.80
2022-10-05T11:14:28.063Z,21.77
2022-10-05T11:16:58.323Z,23.23
2022-10-05T11:19:35.157Z,34.25
2022-10-05T11:22:31.248Z,31.48
2022-10-05T11:25:21.913Z,26.60
2022-10-05T11:28:09.305Z,32.03
2022-10-05T11:30:59.208Z,30.08
2022-10-05T11:33:44.934Z,37.95
2022-10-05T11:36:37.057Z,32.53
2022-10-05T11:39:20.294Z,31.58
2022-10-05T11:42:07.196Z,31.83
2022-10-05T11:44:47.161Z,34.10
2022-10-05T11:47:33.037Z,34.75
2022-10-05T11:50:13.114Z,19.70
2022-10-05T11:52:51.040Z,28.27
2022-10-05T11:55:29.180Z,27.65
2022-10-05T12:00:32.245Z,32.83
2022-10-05T12:03:11.332Z,25.42
2022-10-05T12:05:54.135Z,24.05
2022-10-05T12:08:24.319Z,22.70
2022-10-05T12:11:13.209Z,23.05
2022-10-05T12:16:25.196Z,22.40
2022-10-05T12:18:52.346Z,29.80
2022-10-05T12:21:37.167Z,22.73
2022-10-05T12:24:15.582Z,21.33
2022-10-05T12:27:00.324Z,20.88
2022-10-05T12:29:47.957Z,28.45
2022-10-05T12:32:45.180Z,24.35
2022-10-05T12:35:43.884Z,22.90
2022-10-05T12:38:35.156Z,23.40
2022-10-05T12:41:33.226Z,25.30
2022-10-05T12:44:26.230Z,21.42
2022-10-05T12:47:13.200Z,26.80
2022-10-05T12:50:05.196Z,26.10
2022-10-05T12:52:43.298Z,24.40
2022-10-05T12:55:17.269Z,23.13
2022-10-05T12:57:47.894Z,20.25
2022-10-05T13:00:26.191Z,26.15
2022-10-05T13:03:02.727Z,21.80
2022-10-05T13:06:02.441Z,35.15
2022-10-05T13:08:40.521Z,34.63
2022-10-05T13:11:24.179Z,25.95
2022-10-05T13:13:51.366Z,22.40
2022-10-05T13:16:28.264Z,25.83
2022-10-05T13:19:17.052Z,35.33
2022-10-05T13:21:57.303Z,29.52
2022-10-05T13:24:24.776Z,29.45
2022-10-05T13:26:54.529Z,30.33
2022-10-05T13:29:34.243Z,33.03
2022-10-05T13:32:04.485Z,36.58
2022-10-05T13:34:41.223Z,18.92
2022-10-05T13:37:27.241Z,33.88
2022-10-05T13:40:07.242Z,27.25
2022-10-05T13:42:48.281Z,28.10
2022-10-05T13:45:25.330Z,26.20
2022-10-05T13:47:55.642Z,20.73
2022-10-05T13:50:36.282Z,25.80
2022-10-05T13:53:08.362Z,29.27
2022-10-05T13:56:20.148Z,23.60
2022-10-05T13:58:51.413Z,22.08
2022-10-05T14:01:43.319Z,20.35
2022-10-05T14:04:24.920Z,20.58
2022-10-05T14:06:59.193Z,25.48
2022-10-05T14:09:31.581Z,18.27
2022-10-05T14:12:11.243Z,25.58
2022-10-05T14:14:46.878Z,26.52
2022-10-05T14:17:22.311Z,21.50
2022-10-05T14:19:51.142Z,28.35
2022-10-05T14:22:29.211Z,21.38
2022-10-05T14:25:08.573Z,18.73
2022-10-05T14:27:43.188Z,15.43
2022-10-05T14:30:10.363Z,18.00
2022-10-05T14:32:55.263Z,12.85
2022-10-05T14:35:25.350Z,23.17
2022-10-05T14:38:03.290Z,12.38
2022-10-05T14:40:44.177Z,14.38
2022-10-05T14:43:26.294Z,11.45
2022-10-05T14:46:13.727Z,14.30
2022-10-05T14:48:51.267Z,16.30
2022-10-05T14:51:31.926Z,20.42
2022-10-05T14:54:09.180Z,15.88
2022-10-05T14:56:49.080Z,18.30
2022-10-05T14:59:32.296Z,14.85
2022-10-05T15:02:12.738Z,14.15
2022-10-05T15:04:57.230Z,15.07
2022-10-05T15:07:29.944Z,18.33
2022-10-05T15:10:22.243Z,11.40
2022-10-05T15:12:49.574Z,15.63
2022-10-05T15:15:36.244Z,17.30
2022-10-05T15:18:06.725Z,12.55
2022-10-05T15:20:53.232Z,11.32
2022-10-05T15:23:24.442Z,15.52
2022-10-05T15:26:01.266Z,17.70
2022-10-05T15:28:32.370Z,11.18
2022-10-05T15:31:11.462Z,22.83
2022-10-05T15:33:46.318Z,22.42
2022-10-05T15:36:29.260Z,16.40
2022-10-05T15:39:03.902Z,26.33
2022-10-05T15:41:57.271Z,21.75
2022-10-05T15:44:40.484Z,20.40
2022-10-05T15:47:17.428Z,16.02
2022-10-05T15:50:02.775Z,21.20
2022-10-05T15:52:39.299Z,17.27
2022-10-05T15:55:32.143Z,17.38
2022-10-05T15:58:25.739Z,19.63
2022-10-05T16:00:58.717Z,23.35
2022-10-05T16:03:35.219Z,19.33
2022-10-05T16:06:44.058Z,21.15
2022-10-05T16:09:23.301Z,23.10
2022-10-05T16:12:02.807Z,20.85
2022-10-05T16:14:41.282Z,14.65
2022-10-05T16:17:11.642Z,23.92
2022-10-05T16:19:53.278Z,26.02
2022-10-05T16:22:47.500Z,27.05
2022-10-05T16:25:33.195Z,19.02
2022-10-05T16:28:23.079Z,13.60
2022-10-05T16:31:01.279Z,25.20
2022-10-05T16:33:55.146Z,16.17
2022-10-05T16:36:42.290Z,20.63
2022-10-05T16:39:29.632Z,22.23
2022-10-05T16:42:06.272Z,18.10
2022-10-05T16:44:36.520Z,23.40
2022-10-05T16:47:29.394Z,22.08
2022-10-05T16:49:59.459Z,17.35
2022-10-05T16:52:34.249Z,17.13
2022-10-05T16:55:07.528Z,23.92
2022-10-05T16:57:45.210Z,13.50
2022-10-05T17:00:19.750Z,14.82
2022-10-05T17:03:11.352Z,11.35
2022-10-05T17:05:41.653Z,12.10
2022-10-05T17:08:18.299Z,18.10
2022-10-05T17:10:57.880Z,13.82
2022-10-05T17:13:47.635Z,15.52
2022-10-05T17:16:14.988Z,19.85
2022-10-05T17:19:07.387Z,17.25
2022-10-05T17:21:38.955Z,28.95
2022-10-05T17:24:35.295Z,24.55
2022-10-05T17:27:21.188Z,18.83
2022-10-05T17:29:59.403Z,23.38
2022-10-05T17:35:07.408Z,14.95
2022-10-05T17:37:36.113Z,21.92
2022-10-05T17:40:28.669Z,16.95
2022-10-05T17:43:11.222Z,18.60
2022-10-05T17:45:45.413Z,19.25
2022-10-05T17:48:13.264Z,24.90
2022-10-05T17:51:13.624Z,21.48
2022-10-05T17:54:02.657Z,34.20
2022-10-05T17:56:38.245Z,35.35
2022-10-05T17:59:14.172Z,33.13
2022-10-05T18:01:48.420Z,33.80
2022-10-05T18:04:17.201Z,32.72
2022-10-05T18:06:48.131Z,31.00
2022-10-05T18:09:27.260Z,28.13
2022-10-05T18:12:15.328Z,30.55
2022-10-05T18:15:03.504Z,40.30
2022-10-05T18:17:45.025Z,30.10
2022-10-05T18:20:21.433Z,30.98
2022-10-05T18:22:50.808Z,31.88
2022-10-05T18:25:41.414Z,41.28
2022-10-05T18:28:08.621Z,31.83
2022-10-05T18:31:01.312Z,33.97
2022-10-05T18:33:39.261Z,31.73
2022-10-05T18:36:37.860Z,30.60
2022-10-05T18:39:22.221Z,33.35
2022-10-05T18:42:29.407Z,24.23
2022-10-05T18:44:59.256Z,24.05
2022-10-05T18:47:52.287Z,27.73
2022-10-05T18:50:38.363Z,31.92
2022-10-05T18:53:19.310Z,22.42
2022-10-05T18:55:48.476Z,34.17
2022-10-05T18:58:17.917Z,38.63
2022-10-05T19:01:10.366Z,38.72
2022-10-05T19:03:37.576Z,38.70
2022-10-05T19:06:31.276Z,32.15
2022-10-05T19:09:07.785Z,31.42
2022-10-05T19:12:02.271Z,33.67
2022-10-05T19:14:37.659Z,33.30
2022-10-05T19:17:34.708Z,27.42
2022-10-05T19:20:02.193Z,31.60
2022-10-05T19:22:36.235Z,28.05
2022-10-05T19:25:13.722Z,35.50
2022-10-05T19:27:59.377Z,27.48
2022-10-05T19:30:30.040Z,34.95
2022-10-05T19:33:22.294Z,23.50
2022-10-05T19:36:04.742Z,28.48
2022-10-05T19:38:44.207Z,24.60
2022-10-05T19:41:33.562Z,23.75
2022-10-05T19:44:23.453Z,22.60
2022-10-05T19:47:00.498Z,25.77
2022-10-05T19:49:44.348Z,31.02
2022-10-05T19:52:13.347Z,34.88
2022-10-05T19:54:42.307Z,30.90
2022-10-05T19:57:23.349Z,26.58
2022-10-05T19:59:50.628Z,26.52
2022-10-05T20:02:18.126Z,32.25
2022-10-05T20:05:01.280Z,29.88
2022-10-05T20:07:35.207Z,29.42
2022-10-05T20:10:20.501Z,30.15
2022-10-05T20:12:57.200Z,35.85
2022-10-05T20:15:47.741Z,31.65
2022-10-05T20:18:59.213Z,28.77
2022-10-05T20:21:37.279Z,35.63
2022-10-05T20:24:18.310Z,28.63
2022-10-05T20:27:04.515Z,20.45
2022-10-05T20:29:39.257Z,34.08
2022-10-05T20:32:11.306Z,28.88
2022-10-05T20:34:49.236Z,25.00
2022-10-05T20:37:17.841Z,28.10
2022-10-05T20:39:52.351Z,28.75
2022-10-05T20:42:48.335Z,29.73
2022-10-05T20:45:22.227Z,28.55
2022-10-05T20:47:51.019Z,35.58
2022-10-05T20:50:25.281Z,25.95
2022-10-05T20:52:53.057Z,37.25
2022-10-05T20:55:20.740Z,19.85
2022-10-05T20:57:54.295Z,18.25
2022-10-05T21:00:21.505Z,22.13
2022-10-05T21:02:56.534Z,26.42
2022-10-05T21:05:23.867Z,17.45
2022-10-05T21:07:51.002Z,21.55
2022-10-05T21:10:24.304Z,30.90
2022-10-05T21:12:52.070Z,26.17
2022-10-05T21:15:25.450Z,24.52
2022-10-05T21:17:52.714Z,24.88
2022-10-05T21:20:19.856Z,28.40
2022-10-05T21:22:53.312Z,31.40
2022-10-05T21:25:20.482Z,33.63
2022-10-05T21:27:56.559Z,27.77
2022-10-05T21:30:23.821Z,32.72
2022-10-05T21:32:50.979Z,24.30
2022-10-05T21:35:24.349Z,35.05
2022-10-05T21:37:51.567Z,32.45
2022-10-05T21:40:25.777Z,26.40
2022-10-05T21:42:59.505Z,29.08
2022-10-05T21:45:33.609Z,24.20
2022-10-05T21:48:00.921Z,35.00
2022-10-05T21:50:28.025Z,27.50
2022-10-05T21:53:02.326Z,31.13
2022-10-05T21:55:29.584Z,27.20
2022-10-05T21:58:04.790Z,30.17
2022-10-05T22:00:32.014Z,28.95
2022-10-05T22:03:05.506Z,23.98
2022-10-05T22:05:32.690Z,25.77
2022-10-05T22:08:00.014Z,29.83
2022-10-05T22:10:33.391Z,25.00
2022-10-05T22:13:04.287Z,26.67
2022-10-05T22:15:38.583Z,28.27
2022-10-05T22:18:06.066Z,23.45
2022-10-05T22:20:34.907Z,27.77
2022-10-05T22:23:08.412Z,27.58
2022-10-05T22:25:35.748Z,29.98
2022-10-05T22:28:10.578Z,28.27
2022-10-05T22:30:37.945Z,30.67
2022-10-05T22:33:05.139Z,28.20
2022-10-05T22:35:42.359Z,25.75
2022-10-05T22:38:09.658Z,20.52
2022-10-05T22:40:43.383Z,38.88
2022-10-05T22:43:17.336Z,30.92
2022-10-05T22:45:57.585Z,35.42
2022-10-05T22:48:25.254Z,23.88
2022-10-05T22:50:52.627Z,28.00
2022-10-05T22:53:26.341Z,17.15
2022-10-05T22:56:00.251Z,9.48
2022-10-05T22:58:34.349Z,6.43
2022-10-05T23:01:12.325Z,7.07
2022-10-05T23:03:46.399Z,6.65
2022-10-05T23:06:14.938Z,2.85
2022-10-05T23:08:42.747Z,6.40
2022-10-05T23:11:17.454Z,2.58
2022-10-05T23:13:44.979Z,3.00
2022-10-05T23:18:46.436Z,9.55
2022-10-05T23:21:13.651Z,3.97
2022-10-05T23:23:48.408Z,4.18
2022-10-05T23:26:16.409Z,4.68
2022-10-05T23:28:47.313Z,3.95
2022-10-05T23:31:22.483Z,4.57
2022-10-05T23:33:56.262Z,3.17
2022-10-05T23:36:31.452Z,3.35
2022-10-05T23:39:05.444Z,8.05
2022-10-05T23:41:32.649Z,2.35
2022-10-05T23:44:20.460Z,8.55
2022-10-05T23:46:47.649Z,8.15
2022-10-05T23:49:15.029Z,6.28
2022-10-05T23:51:49.370Z,8.65
2022-10-05T23:54:16.679Z,5.53
2022-10-05T23:56:50.819Z,4.43
2022-10-05T23:59:18.097Z,8.93
